Time;durP1;ratioP1;P1;durP2;ratioP2;P2;SDS_P1;SDS_P2;PMS_P1;PMS_P2;Temp;Humidity;BMP_temperature;BMP_pressure;BME280_temperature;BME280_humidity;BME280_pressure;Samples;Min_cycle;Max_cycle;Signal;HPM_P1;HPM_P2
2022/08/04 00:01:12;;;;;;;11.17;3.40;;;26.10;1.00;;;;;;5021925;28;20197;-89
2022/08/04 00:07:28;;;;;;;8.03;3.23;;;26.00;1.00;;;;;;5039994;28;20178;-90
2022/08/04 00:13:22;;;;;;;7.33;3.33;;;26.00;1.00;;;;;;5038464;28;20165;-91
2022/08/04 00:15:58;;;;;;;8.70;3.20;;;26.00;1.00;;;;;;5022476;28;20194;-91
2022/08/04 00:22:19;;;;;;;7.90;2.97;;;25.70;1.00;;;;;;5036719;28;20229;-89
2022/08/04 00:25:19;;;;;;;9.40;3.30;;;25.70;1.00;;;;;;5038777;28;20205;-92
2022/08/04 00:28:46;;;;;;;8.63;3.60;;;25.70;1.00;;;;;;5035654;28;20146;-96
2022/08/04 00:31:28;;;;;;;5.97;3.10;;;25.80;1.00;;;;;;5020145;28;20194;-95
2022/08/04 00:34:05;;;;;;;9.77;3.90;;;25.80;1.00;;;;;;5021868;28;20193;-92
2022/08/04 00:37:12;;;;;;;9.63;3.23;;;25.80;1.00;;;;;;5038883;28;20150;-93
2022/08/04 00:40:25;;;;;;;8.77;3.40;;;25.70;1.00;;;;;;5038845;28;20200;-93
2022/08/04 00:43:57;;;;;;;9.57;3.90;;;25.30;1.00;;;;;;5038731;28;20489;-93
2022/08/04 00:50:45;;;;;;;7.30;3.40;;;25.00;1.00;;;;;;5038479;28;20189;-94
2022/08/04 00:54:02;;;;;;;11.20;4.33;;;25.20;1.00;;;;;;5019547;28;20162;-94
2022/08/04 00:57:30;;;;;;;9.17;3.50;;;25.40;1.00;;;;;;5038494;28;20193;-92
2022/08/04 01:00:27;;;;;;;8.83;3.73;;;25.50;1.00;;;;;;5019932;28;20220;-95
2022/08/04 01:07:06;;;;;;;10.10;3.70;;;25.30;1.00;;;;;;5032590;28;20249;-92
2022/08/04 01:09:57;;;;;;;7.83;3.60;;;25.20;1.00;;;;;;5012295;28;20185;-92
2022/08/04 01:13:10;;;;;;;8.13;4.27;;;25.30;1.00;;;;;;5036438;28;20173;-92
2022/08/04 01:16:13;;;;;;;8.60;4.37;;;25.30;1.00;;;;;;5038044;28;20237;-91
2022/08/04 01:19:04;;;;;;;11.07;4.07;;;25.30;1.00;;;;;;5039179;28;20150;-91
2022/08/04 01:21:54;;;;;;;12.50;4.50;;;25.30;1.00;;;;;;5022074;28;20193;-90
2022/08/04 01:25:05;;;;;;;8.67;4.30;;;25.40;1.00;;;;;;5038456;28;20192;-91
2022/08/04 01:28:12;;;;;;;12.40;4.90;;;25.30;1.00;;;;;;5038633;28;20151;-90
2022/08/04 01:31:37;;;;;;;11.73;5.00;;;25.30;1.00;;;;;;5029031;28;20180;-90
2022/08/04 01:34:42;;;;;;;9.77;4.87;;;25.20;1.00;;;;;;5012774;28;20264;-91
2022/08/04 01:40:43;;;;;;;11.97;4.37;;;25.00;1.00;;;;;;5033288;28;20230;-91
2022/08/04 01:44:10;;;;;;;8.93;4.37;;;24.80;1.00;;;;;;5020921;28;20174;-90
2022/08/04 01:48:06;;;;;;;7.73;4.20;;;24.80;1.00;;;;;;5025482;28;20162;-90
2022/08/04 01:50:50;;;;;;;9.23;4.43;;;24.80;1.00;;;;;;4966506;29;20187;-92
2022/08/04 02:00:44;;;;;;;10.63;4.27;;;25.10;1.00;;;;;;4965702;29;20211;-91
2022/08/04 02:03:41;;;;;;;7.83;3.70;;;25.20;1.00;;;;;;4964964;28;20180;-91
2022/08/04 02:06:52;;;;;;;6.50;3.90;;;25.30;1.00;;;;;;4948065;29;20187;-91
2022/08/04 02:10:00;;;;;;;11.20;4.00;;;25.50;1.00;;;;;;4963405;29;20184;-91
2022/08/04 02:16:06;;;;;;;6.97;4.37;;;25.60;1.00;;;;;;4963791;28;20194;-91
2022/08/04 02:19:09;;;;;;;8.50;3.77;;;25.60;1.00;;;;;;4947739;29;20252;-91
2022/08/04 02:21:49;;;;;;;10.43;4.10;;;25.50;1.00;;;;;;5015137;28;20201;-91
2022/08/04 02:25:06;;;;;;;9.73;4.87;;;25.50;1.00;;;;;;5006597;28;20174;-90
2022/08/04 02:28:07;;;;;;;8.43;4.17;;;25.50;1.00;;;;;;5022318;28;20587;-92
2022/08/04 02:31:20;;;;;;;8.93;4.20;;;25.40;1.00;;;;;;5027168;28;20181;-91
2022/08/04 02:34:23;;;;;;;12.97;5.17;;;25.30;1.00;;;;;;5012973;28;20170;-91
2022/08/04 02:37:05;;;;;;;9.87;4.70;;;25.00;1.00;;;;;;5038292;28;20172;-91
2022/08/04 02:39:49;;;;;;;7.47;4.67;;;24.90;1.00;;;;;;5021256;28;20205;-92
2022/08/04 02:45:51;;;;;;;13.43;4.63;;;24.70;1.00;;;;;;5040155;28;20226;-92
2022/08/04 02:48:34;;;;;;;10.97;4.80;;;24.70;1.00;;;;;;5024590;28;20229;-93
2022/08/04 02:51:04;;;;;;;7.30;4.60;;;24.60;1.00;;;;;;5041181;28;20196;-92
2022/08/04 02:53:48;;;;;;;7.80;4.57;;;24.30;1.00;;;;;;5040692;28;20189;-90
2022/08/04 02:56:19;;;;;;;9.70;4.77;;;24.10;1.00;;;;;;5036589;28;20228;-91
2022/08/04 02:59:10;;;;;;;9.93;5.13;;;24.20;1.00;;;;;;5015401;28;20190;-91
2022/08/04 03:05:08;;;;;;;9.67;4.73;;;24.30;1.00;;;;;;5041327;28;20142;-90
2022/08/04 03:11:39;;;;;;;8.50;4.73;;;24.30;1.00;;;;;;5040191;28;20236;-88
2022/08/04 03:14:52;;;;;;;11.33;4.90;;;24.10;1.00;;;;;;5024185;28;20162;-89
2022/08/04 03:17:51;;;;;;;8.53;4.70;;;24.00;1.00;;;;;;5023823;28;20161;-88
2022/08/04 03:20:42;;;;;;;10.53;4.50;;;23.80;1.00;;;;;;5023781;28;20221;-89
2022/08/04 03:23:45;;;;;;;12.43;5.20;;;23.90;1.00;;;;;;5039628;28;20189;-90
2022/08/04 03:27:02;;;;;;;8.90;4.70;;;24.00;1.00;;;;;;4999936;28;20172;-88
2022/08/04 03:36:58;;;;;;;10.93;5.27;;;24.00;1.00;;;;;;4995068;28;20324;-91
2022/08/04 03:40:27;;;;;;;13.10;6.07;;;24.10;1.00;;;;;;4997585;28;20205;-91
2022/08/04 03:50:29;;;;;;;10.70;5.50;;;23.70;1.00;;;;;;5000281;28;20174;-91
2022/08/04 03:57:14;;;;;;;12.93;5.10;;;23.30;1.00;;;;;;5008624;28;20161;-89
2022/08/04 04:04:03;;;;;;;8.23;4.97;;;23.60;1.00;;;;;;4960876;28;20237;-92
2022/08/04 04:07:21;;;;;;;13.57;5.50;;;23.40;1.00;;;;;;4958828;28;20177;-92
2022/08/04 04:17:20;;;;;;;9.83;5.33;;;23.10;1.00;;;;;;4961058;28;20286;-91
2022/08/04 04:21:24;;;;;;;8.73;5.17;;;23.10;1.00;;;;;;4958740;28;20212;-92
2022/08/04 04:27:34;;;;;;;12.23;5.03;;;23.00;1.00;;;;;;5039684;28;20158;-90
2022/08/04 04:30:25;;;;;;;11.07;4.93;;;22.90;1.00;;;;;;5019572;28;20181;-90
2022/08/04 04:33:43;;;;;;;11.03;5.13;;;22.60;1.00;;;;;;5022621;28;20184;-89
2022/08/04 04:43:32;;;;;;;12.00;5.37;;;22.40;1.00;;;;;;5039534;28;20193;-91
2022/08/04 04:46:57;;;;;;;11.33;5.27;;;22.20;1.00;;;;;;5022110;28;20163;-90
2022/08/04 04:53:13;;;;;;;10.90;5.70;;;22.40;1.00;;;;;;5028381;28;20243;-90
2022/08/04 04:56:10;;;;;;;8.77;5.73;;;22.40;1.00;;;;;;5022437;28;20185;-91
2022/08/04 04:59:05;;;;;;;14.50;6.13;;;22.40;1.00;;;;;;5027160;28;20171;-91
2022/08/04 05:02:25;;;;;;;10.97;5.60;;;22.40;1.00;;;;;;4968938;28;20721;-91
2022/08/04 05:05:14;;;;;;;11.83;5.87;;;22.70;1.00;;;;;;4986295;28;20183;-90
2022/08/04 05:08:28;;;;;;;10.43;5.63;;;22.70;1.00;;;;;;4985953;28;20191;-91
2022/08/04 05:12:03;;;;;;;11.50;5.20;;;22.70;1.00;;;;;;4995098;28;20198;-90
2022/08/04 05:14:53;;;;;;;8.60;4.73;;;22.50;1.00;;;;;;4997036;28;20183;-91
2022/08/04 05:17:42;;;;;;;12.90;5.33;;;22.60;1.00;;;;;;4985940;28;20242;-90
2022/08/04 05:20:50;;;;;;;12.80;4.97;;;22.70;1.00;;;;;;4965997;28;20782;-91
2022/08/04 05:23:31;;;;;;;10.70;4.43;;;22.90;1.00;;;;;;4966340;28;20199;-91
2022/08/04 05:27:08;;;;;;;12.93;5.13;;;22.90;1.00;;;;;;5000900;28;20205;-91
2022/08/04 05:29:54;;;;;;;10.40;4.17;;;22.80;1.00;;;;;;5005971;28;20593;-91
2022/08/04 05:32:48;;;;;;;13.03;5.23;;;23.00;1.00;;;;;;4975478;28;20182;-90
2022/08/04 05:36:11;;;;;;;12.47;5.30;;;22.90;1.00;;;;;;5023048;28;20174;-91
2022/08/04 05:39:29;;;;;;;10.63;5.30;;;22.90;1.00;;;;;;5015731;28;20253;-90
2022/08/04 05:42:15;;;;;;;9.33;5.00;;;23.00;1.00;;;;;;5035942;28;20194;-92
2022/08/04 05:45:10;;;;;;;10.20;5.00;;;23.20;1.00;;;;;;5019729;28;20167;-90
2022/08/04 05:48:02;;;;;;;12.07;5.80;;;23.20;1.00;;;;;;5018597;28;20262;-91
2022/08/04 05:51:30;;;;;;;12.20;5.10;;;23.30;1.00;;;;;;5027797;28;20186;-92
2022/08/04 05:54:07;;;;;;;12.27;5.70;;;23.30;1.00;;;;;;5009269;28;20162;-90
2022/08/04 05:57:37;;;;;;;11.87;5.20;;;23.40;1.00;;;;;;5037199;28;20198;-90
2022/08/04 06:00:38;;;;;;;10.67;5.60;;;23.50;1.00;;;;;;5038405;28;20229;-91
2022/08/04 06:03:23;;;;;;;10.80;5.90;;;23.60;1.00;;;;;;5016898;28;20187;-89
2022/08/04 06:06:00;;;;;;;9.27;5.90;;;23.60;1.00;;;;;;5041602;28;20178;-90
2022/08/04 06:08:51;;;;;;;12.13;5.83;;;23.60;1.00;;;;;;5024452;28;20170;-89
2022/08/04 06:11:31;;;;;;;9.33;5.27;;;23.50;1.00;;;;;;5025408;28;20163;-90
2022/08/04 06:14:08;;;;;;;12.30;5.80;;;23.40;1.00;;;;;;5024902;28;20181;-89
2022/08/04 06:20:53;;;;;;;12.47;5.47;;;23.50;1.00;;;;;;5041818;28;20248;-90
2022/08/04 06:26:56;;;;;;;13.37;5.30;;;23.60;1.00;;;;;;4973533;28;20613;-90
2022/08/04 06:29:48;;;;;;;12.43;5.53;;;23.50;1.00;;;;;;5041104;28;20177;-90
2022/08/04 06:32:59;;;;;;;9.43;5.30;;;23.30;1.00;;;;;;5041006;28;20190;-92
2022/08/04 06:39:15;;;;;;;11.00;5.30;;;23.70;1.00;;;;;;5028082;28;20173;-91
2022/08/04 06:42:16;;;;;;;13.80;5.53;;;23.80;1.00;;;;;;5027578;28;20163;-91
2022/08/04 06:45:38;;;;;;;;;;;;;;;;;;;;;
2022/08/04 06:49:06;;;;;;;;;;;;;;;;;;;;;
2022/08/04 06:52:05;;;;;;;11.07;5.50;;;24.10;1.00;;;;;;5020056;28;20198;-90
2022/08/04 07:05:15;;;;;;;10.97;5.17;;;24.10;1.00;;;;;;5037804;28;20177;-90
2022/08/04 07:08:45;;;;;;;;;;;;;;;;;;;;;
2022/08/04 07:11:53;;;;;;;10.67;5.23;;;24.00;1.00;;;;;;4971089;28;20324;-91
2022/08/04 07:14:44;;;;;;;8.60;4.63;;;24.20;1.00;;;;;;5029793;28;20202;-91
2022/08/04 07:17:58;;;;;;;11.50;4.87;;;24.40;1.00;;;;;;5009976;28;20178;-91
2022/08/04 07:21:25;;;;;;;13.10;5.60;;;24.50;1.00;;;;;;4977520;28;20245;-91
2022/08/04 07:24:01;;;;;;;12.93;5.30;;;24.50;1.00;;;;;;5010502;28;20174;-91
2022/08/04 07:29:49;;;;;;;9.50;4.83;;;24.60;1.00;;;;;;5034801;28;20162;-91
2022/08/04 07:32:21;;;;;;;7.27;4.83;;;24.60;1.00;;;;;;5023132;28;20189;-86
2022/08/04 07:34:49;;;;;;;11.93;5.27;;;24.60;1.00;;;;;;5016603;28;20202;-87
2022/08/04 07:37:24;;;;;;;8.70;5.00;;;24.40;1.00;;;;;;5008648;28;20224;-86
2022/08/04 07:40:09;;;;;;;11.10;5.47;;;24.20;1.00;;;;;;5008916;28;20209;-87
2022/08/04 07:42:39;;;;;;;9.40;5.03;;;24.30;1.00;;;;;;5018990;28;20178;-87
2022/08/04 07:45:10;;;;;;;10.60;4.80;;;24.30;1.00;;;;;;5001116;28;20177;-88
2022/08/04 07:47:38;;;;;;;9.13;4.87;;;24.20;1.00;;;;;;5001391;28;20216;-85
2022/08/04 07:50:09;;;;;;;8.27;4.50;;;24.00;1.00;;;;;;5019162;28;20265;-88
2022/08/04 07:52:37;;;;;;;9.70;5.37;;;24.20;1.00;;;;;;5003349;28;20181;-89
2022/08/04 07:55:05;;;;;;;9.33;5.37;;;24.20;1.00;;;;;;5001917;28;20645;-91
2022/08/04 07:57:32;;;;;;;12.00;5.20;;;24.30;1.00;;;;;;5002336;28;20206;-86
2022/08/04 07:59:57;;;;;;;11.17;5.40;;;24.10;1.00;;;;;;5002003;28;20289;-90
2022/08/04 08:02:24;;;;;;;10.03;5.40;;;23.90;1.00;;;;;;5002983;28;20182;-88
2022/08/04 08:04:51;;;;;;;9.17;5.27;;;23.60;1.00;;;;;;5007974;28;20189;-85
2022/08/04 08:07:19;;;;;;;12.23;5.27;;;23.50;1.70;;;;;;5003912;28;20614;-90
2022/08/04 08:09:54;;;;;;;9.50;5.00;;;23.50;4.20;;;;;;5005480;28;20178;-87
2022/08/04 08:12:30;;;;;;;10.60;5.80;;;23.60;3.20;;;;;;5027307;28;20174;-93
2022/08/04 08:14:57;;;;;;;10.27;6.03;;;23.50;7.10;;;;;;5013178;28;20194;-96
2022/08/04 08:17:23;;;;;;;10.53;6.00;;;23.50;7.40;;;;;;5014046;28;20178;-93
2022/08/04 08:19:50;;;;;;;12.73;6.53;;;23.50;9.80;;;;;;5013630;28;20214;-95
2022/08/04 08:22:16;;;;;;;9.80;6.10;;;23.30;9.80;;;;;;5010283;28;20220;-96
2022/08/04 08:24:42;;;;;;;13.60;7.67;;;23.20;13.60;;;;;;5008313;28;20176;-95
2022/08/04 08:27:08;;;;;;;15.60;8.47;;;23.20;13.80;;;;;;5004442;28;20607;-87
2022/08/04 08:29:34;;;;;;;14.20;7.97;;;23.20;15.00;;;;;;5001600;28;20189;-90
2022/08/04 08:32:12;;;;;;;17.63;9.57;;;23.30;14.40;;;;;;5002033;28;20193;-90
2022/08/04 08:34:58;;;;;;;16.60;10.00;;;23.30;16.80;;;;;;5015665;28;20265;-86
2022/08/04 08:37:36;;;;;;;14.77;9.30;;;23.20;22.00;;;;;;5002803;28;20190;-87
2022/08/04 08:40:22;;;;;;;16.67;9.10;;;23.10;20.20;;;;;;5015881;28;20214;-86
2022/08/04 08:43:22;;;;;;;15.23;9.57;;;23.10;23.60;;;;;;5020122;28;20165;-92
2022/08/04 08:46:31;;;;;;;16.20;9.33;;;23.10;23.00;;;;;;5037190;28;20627;-88
2022/08/04 08:49:27;;;;;;;18.37;9.70;;;23.20;20.50;;;;;;5017341;28;20178;-86
2022/08/04 08:52:30;;;;;;;15.90;9.03;;;23.20;20.00;;;;;;5014584;28;20177;-90
2022/08/04 08:55:41;;;;;;;13.93;9.33;;;23.10;24.00;;;;;;5005044;28;20199;-95
2022/08/04 08:58:48;;;;;;;16.07;8.40;;;23.00;25.00;;;;;;5005421;28;20184;-91
2022/08/04 09:01:52;;;;;;;14.43;8.53;;;23.00;27.50;;;;;;5008097;28;20306;-87
2022/08/04 09:04:43;;;;;;;12.77;8.60;;;23.00;28.00;;;;;;5017263;28;20208;-94
2022/08/04 09:07:47;;;;;;;15.03;8.77;;;22.90;32.80;;;;;;5012213;28;20197;-95
2022/08/04 09:10:53;;;;;;;15.30;10.10;;;22.90;33.80;;;;;;5012306;28;20184;-92
2022/08/04 09:13:58;;;;;;;16.97;8.83;;;23.00;36.50;;;;;;5024530;28;20192;-91
2022/08/04 09:16:35;;;;;;;11.70;8.87;;;23.20;32.60;;;;;;5006875;28;20204;-85
2022/08/04 09:19:20;;;;;;;15.00;9.20;;;23.30;36.50;;;;;;5035723;28;20236;-88
2022/08/04 09:22:07;;;;;;;17.03;9.70;;;23.30;36.50;;;;;;5018153;28;20295;-86
2022/08/04 09:24:52;;;;;;;18.00;10.63;;;23.20;35.80;;;;;;5018880;28;20210;-91
2022/08/04 09:27:46;;;;;;;15.17;10.93;;;23.20;36.00;;;;;;5020781;28;20189;-88
2022/08/04 09:30:18;;;;;;;17.30;11.57;;;23.30;35.40;;;;;;5019414;28;20174;-87
2022/08/04 09:33:13;;;;;;;14.20;10.53;;;23.40;31.80;;;;;;5033030;28;20245;-87
2022/08/04 09:36:03;;;;;;;19.00;11.03;;;23.40;29.30;;;;;;5003202;28;20264;-91
2022/08/04 09:38:41;;;;;;;14.67;11.47;;;23.40;33.30;;;;;;5008104;28;20186;-92
2022/08/04 09:44:56;;;;;;;21.10;15.97;;;23.20;39.20;;;;;;5031696;28;20268;-92
2022/08/04 09:47:23;;;;;;;18.90;14.13;;;22.90;48.60;;;;;;5013463;28;20178;-92
2022/08/04 09:50:08;;;;;;;20.83;14.37;;;22.90;52.80;;;;;;5012619;28;20664;-93
2022/08/04 09:53:11;;;;;;;24.27;16.87;;;23.00;53.30;;;;;;5028697;28;20180;-95
2022/08/04 09:55:45;;;;;;;18.37;15.90;;;23.10;49.70;;;;;;5011011;28;20180;-92
2022/08/04 09:58:45;;;;;;;20.00;15.93;;;23.20;48.40;;;;;;5020096;28;20160;-90
2022/08/04 10:01:17;;;;;;;22.47;16.80;;;23.20;49.80;;;;;;5024643;28;20209;-90
2022/08/04 10:04:16;;;;;;;21.40;16.77;;;23.20;48.60;;;;;;5025249;28;20188;-91
2022/08/04 10:11:14;;;;;;;26.50;18.47;;;23.10;43.90;;;;;;5040170;28;20212;-92
2022/08/04 10:24:28;;;;;;;24.97;20.60;;;23.50;43.70;;;;;;4949542;28;20180;-91
2022/08/04 10:34:07;;;;;;;25.73;22.50;;;23.80;28.00;;;;;;4945937;29;20180;-91
2022/08/04 10:37:56;;;;;;;27.27;22.93;;;23.90;21.40;;;;;;4960730;28;20256;-92
2022/08/04 10:40:44;;;;;;;22.60;19.63;;;23.90;23.20;;;;;;5009579;28;20206;-91
2022/08/04 11:04:34;;;;;;;;;;;;;;;;;;;;;
2022/08/04 11:07:51;;;;;;;20.47;15.57;;;24.70;1.00;;;;;;4985241;28;20263;-91
2022/08/04 11:10:43;;;;;;;19.33;16.80;;;24.70;1.00;;;;;;4968284;28;20172;-92
2022/08/04 11:20:46;;;;;;;;;;;;;;;;;;;;;
2022/08/04 11:24:01;;;;;;;18.37;16.47;;;25.20;1.00;;;;;;5026109;28;20255;-92
2022/08/04 11:27:24;;;;;;;18.90;16.20;;;25.40;1.00;;;;;;5007110;28;20174;-92
2022/08/04 11:30:51;;;;;;;16.47;13.70;;;25.50;1.00;;;;;;5026687;28;20162;-91
2022/08/04 11:37:34;;;;;;;15.50;13.80;;;25.10;1.00;;;;;;5030766;28;20218;-92
2022/08/04 11:50:55;;;;;;;13.60;12.20;;;25.70;1.00;;;;;;4995600;28;20195;-95
2022/08/04 12:00:31;;;;;;;14.50;11.10;;;25.90;1.00;;;;;;4922099;29;20217;-91
2022/08/04 12:17:46;;;;;;;15.30;12.93;;;26.20;1.00;;;;;;4910497;29;20247;-91
2022/08/04 12:21:09;;;;;;;13.27;10.73;;;26.40;1.00;;;;;;4924594;29;20284;-93
2022/08/04 12:24:08;;;;;;;12.80;10.07;;;26.30;1.00;;;;;;4939766;29;20181;-93
2022/08/04 12:28:17;;;;;;;14.87;11.40;;;26.50;1.00;;;;;;4925165;29;20169;-90
2022/08/04 12:30:42;;;;;;;13.80;9.50;;;26.70;1.00;;;;;;4994796;28;20159;-89
2022/08/04 12:34:03;;;;;;;14.37;10.73;;;27.00;1.00;;;;;;5033783;28;20233;-89
2022/08/04 12:37:39;;;;;;;11.70;8.70;;;27.10;1.00;;;;;;5018329;28;20568;-89
2022/08/04 12:41:11;;;;;;;14.03;11.37;;;27.10;1.00;;;;;;4992554;28;20234;-91
2022/08/04 12:44:22;;;;;;;12.70;9.30;;;26.80;1.00;;;;;;4989561;28;20270;-92
2022/08/04 12:50:28;;;;;;;10.27;7.50;;;27.00;1.00;;;;;;4998749;28;20189;-90
2022/08/04 12:53:42;;;;;;;9.73;7.43;;;27.40;1.00;;;;;;4998074;28;20189;-94
2022/08/04 12:56:51;;;;;;;;;;;;;;;;;;;;;
2022/08/04 13:00:17;;;;;;;11.40;6.00;;;28.10;1.00;;;;;;4998572;28;20171;-93
2022/08/04 13:04:25;;;;;;;;;;;;;;;;;;;;;
2022/08/04 13:06:55;;;;;;;10.65;5.80;;;28.30;99.90;;;;;;4987921;28;20154;-95
2022/08/04 13:10:15;;;;;;;;;;;;;;;;;;;;;
2022/08/04 13:12:48;;;;;;;8.48;4.93;;;28.80;99.90;;;;;;5025396;28;20183;-94
2022/08/04 13:15:25;;;;;;;10.35;6.00;;;29.00;99.90;;;;;;5019828;28;20197;-94
2022/08/04 13:18:22;;;;;;;10.35;6.65;;;28.70;69.60;;;;;;5019013;28;20197;-95
2022/08/04 13:21:32;;;;;;;8.27;5.35;;;28.50;99.90;;;;;;5034068;28;20214;-95
2022/08/04 13:24:19;;;;;;;7.82;5.93;;;28.30;99.90;;;;;;5017449;28;20174;-96
2022/08/04 13:27:11;;;;;;;7.68;5.38;;;28.20;99.90;;;;;;5016074;28;20220;-96
2022/08/04 13:30:01;;;;;;;7.82;5.53;;;28.20;99.90;;;;;;5015819;28;20190;-96
2022/08/04 13:32:39;;;;;;;7.65;5.13;;;28.10;99.90;;;;;;5015747;28;20182;-96
2022/08/04 13:35:12;;;;;;;8.18;5.47;;;28.20;99.90;;;;;;5012850;28;20212;-96
2022/08/04 13:37:41;;;;;;;8.30;5.78;;;27.80;99.90;;;;;;5009739;28;20195;-96
2022/08/04 13:40:21;;;;;;;6.47;4.40;;;27.70;99.90;;;;;;4975518;28;20323;-96
2022/08/04 13:43:12;;;;;;;6.57;4.27;;;27.80;99.90;;;;;;4990510;28;20163;-95
2022/08/04 13:46:25;;;;;;;6.65;4.03;;;28.10;99.90;;;;;;5009853;28;20247;-95
2022/08/04 13:49:18;;;;;;;10.75;5.85;;;28.30;99.90;;;;;;4981643;28;20179;-96
2022/08/04 13:51:56;;;;;;;5.47;4.25;;;28.50;99.90;;;;;;4979002;28;20184;-96
2022/08/04 13:54:35;;;;;;;9.43;4.95;;;28.50;99.90;;;;;;5016637;28;20186;-92
2022/08/04 13:57:14;;;;;;;5.55;4.57;;;28.40;99.90;;;;;;5018185;28;20159;-95
2022/08/04 13:59:50;;;;;;;8.25;5.07;;;28.10;99.90;;;;;;4984646;28;20225;-91
2022/08/04 14:05:45;;;;;;;7.20;5.60;;;28.30;99.90;;;;;;5016458;28;20175;-93
2022/08/04 14:08:57;;;;;;;9.55;5.25;;;28.30;84.50;;;;;;4986824;28;20173;-92
2022/08/04 14:11:47;;;;;;;6.57;4.38;;;28.40;99.90;;;;;;4984243;28;20194;-91
2022/08/04 14:15:00;;;;;;;6.55;4.35;;;28.60;99.90;;;;;;4986700;28;20171;-90
2022/08/04 14:17:33;;;;;;;8.10;5.40;;;28.80;99.90;;;;;;4983020;28;20197;-92
2022/08/04 14:20:17;;;;;;;7.10;5.38;;;28.70;1.00;;;;;;4988820;28;20233;-91
2022/08/04 14:22:51;;;;;;;7.35;4.53;;;28.70;19.60;;;;;;4980021;28;20218;-92
2022/08/04 14:25:21;;;;;;;7.78;4.60;;;29.00;7.60;;;;;;4983451;28;20190;-92
2022/08/04 14:28:01;;;;;;;6.43;4.47;;;29.10;1.00;;;;;;4988806;28;20159;-90
2022/08/04 14:31:14;;;;;;;8.07;4.00;;;29.30;39.60;;;;;;5016415;28;20194;-92
2022/08/04 14:33:45;;;;;;;8.68;4.68;;;29.70;1.00;;;;;;4986682;28;20163;-90
2022/08/04 14:36:14;;;;;;;7.18;3.60;;;29.90;99.90;;;;;;4978192;28;20210;-93
2022/08/04 14:38:48;;;;;;;10.43;4.40;;;29.90;1.00;;;;;;4991268;28;20178;-92
2022/08/04 14:41:20;;;;;;;8.38;4.88;;;29.90;99.90;;;;;;5009558;28;20218;-91
2022/08/04 14:47:52;;;;;;;5.40;4.00;;;30.30;99.90;;;;;;5018813;28;20244;-92
2022/08/04 14:50:39;;;;;;;5.78;4.35;;;30.10;99.90;;;;;;4999625;28;20159;-91
2022/08/04 14:53:15;;;;;;;5.60;3.97;;;29.90;99.90;;;;;;4995337;28;20221;-91
2022/08/04 14:56:01;;;;;;;7.88;4.10;;;29.30;99.90;;;;;;4997857;28;20166;-92
2022/08/04 14:58:36;;;;;;;6.28;4.07;;;29.40;1.00;;;;;;5018555;28;20238;-91
2022/08/04 15:01:10;;;;;;;6.78;4.30;;;29.70;1.00;;;;;;5003697;28;20205;-94
2022/08/04 15:04:06;;;;;;;7.30;4.25;;;29.70;1.00;;;;;;4988374;28;20181;-93
2022/08/04 15:07:12;;;;;;;6.28;4.13;;;29.80;1.00;;;;;;4986631;28;20177;-93
2022/08/04 15:09:42;;;;;;;7.32;4.13;;;30.00;1.00;;;;;;5015548;28;20466;-93
2022/08/04 15:12:11;;;;;;;7.93;4.20;;;30.10;99.90;;;;;;4999801;28;20172;-96
2022/08/04 15:14:43;;;;;;;7.78;4.10;;;30.10;1.00;;;;;;4994721;28;20175;-93
2022/08/04 15:17:13;;;;;;;8.18;4.80;;;30.10;1.00;;;;;;4979554;28;20206;-96
2022/08/04 15:19:44;;;;;;;7.80;5.20;;;30.10;99.90;;;;;;4981763;28;20222;-96
2022/08/04 15:22:14;;;;;;;8.07;5.43;;;30.00;99.90;;;;;;4982074;28;20171;-95
2022/08/04 15:24:43;;;;;;;9.02;5.50;;;29.90;1.00;;;;;;5013703;28;20159;-96
2022/08/04 15:27:31;;;;;;;7.47;5.38;;;29.70;1.00;;;;;;4996599;28;20167;-95
2022/08/04 15:30:06;;;;;;;9.40;5.25;;;29.30;99.90;;;;;;4996601;28;20159;-96
2022/08/04 15:32:46;;;;;;;8.23;5.60;;;29.40;99.90;;;;;;4996061;28;20159;-96
2022/08/04 15:35:23;;;;;;;9.18;6.28;;;29.20;99.90;;;;;;4994845;28;20143;-96
2022/08/04 15:38:02;;;;;;;9.15;4.93;;;29.00;1.00;;;;;;4999945;28;20166;-94
2022/08/04 15:41:11;;;;;;;7.03;5.43;;;29.10;99.90;;;;;;5017649;28;20223;-96
2022/08/04 15:43:55;;;;;;;8.38;5.88;;;28.90;99.90;;;;;;4991674;28;20185;-95
2022/08/04 15:46:58;;;;;;;9.90;4.95;;;29.00;99.90;;;;;;5003371;28;20187;-92
2022/08/04 15:49:30;;;;;;;8.48;5.80;;;29.30;1.00;;;;;;4990703;28;20214;-91
2022/08/04 15:52:20;;;;;;;9.52;5.88;;;29.40;1.00;;;;;;5018092;28;20175;-93
2022/08/04 15:55:29;;;;;;;11.77;5.18;;;29.50;1.00;;;;;;5019721;28;20186;-91
2022/08/04 15:58:03;;;;;;;9.13;5.35;;;29.60;1.00;;;;;;5002939;28;20251;-93
2022/08/04 16:00:55;;;;;;;7.88;4.75;;;29.40;99.90;;;;;;5002889;28;20218;-93
2022/08/04 16:03:48;;;;;;;8.68;4.50;;;29.40;1.00;;;;;;5017815;28;20163;-92
2022/08/04 16:06:14;;;;;;;6.15;4.30;;;29.20;1.00;;;;;;5008929;28;20238;-91
2022/08/04 16:08:54;;;;;;;7.22;3.78;;;28.90;1.00;;;;;;4990658;28;20623;-91
2022/08/04 16:11:33;;;;;;;5.15;3.58;;;28.50;85.50;;;;;;5007962;28;20182;-91
2022/08/04 16:14:06;;;;;;;6.53;3.60;;;28.30;1.00;;;;;;5012647;28;20159;-91
2022/08/04 16:16:48;;;;;;;8.18;3.38;;;28.00;1.00;;;;;;5008062;28;20199;-91
2022/08/04 16:19:53;;;;;;;5.97;3.45;;;27.60;92.90;;;;;;5008631;28;20258;-93
2022/08/04 16:22:51;;;;;;;7.40;3.23;;;27.40;99.90;;;;;;4986116;28;20182;-92
2022/08/04 16:25:52;;;;;;;5.97;3.37;;;27.40;99.90;;;;;;4968074;28;20179;-91
2022/08/04 16:28:39;;;;;;;4.93;2.80;;;27.40;99.90;;;;;;5003341;28;20306;-91
2022/08/04 16:31:09;;;;;;;8.00;3.60;;;27.30;99.90;;;;;;4985251;28;20182;-91
2022/08/04 16:34:17;;;;;;;4.77;3.10;;;27.20;99.90;;;;;;4985139;28;20173;-91
2022/08/04 16:37:27;;;;;;;;;;;;;;;;;;;;;
2022/08/04 16:40:31;;;;;;;6.17;3.30;;;27.30;99.90;;;;;;5003059;28;20312;-91
2022/08/04 16:43:51;;;;;;;5.60;3.55;;;27.40;99.90;;;;;;5003267;28;20176;-92
2022/08/04 16:46:42;;;;;;;6.07;2.92;;;27.50;99.90;;;;;;4990614;28;20175;-91
2022/08/04 16:49:09;;;;;;;5.30;3.27;;;27.30;99.90;;;;;;4992224;28;20563;-92
2022/08/04 16:51:50;;;;;;;6.07;2.87;;;27.10;99.90;;;;;;5007709;28;20171;-90
2022/08/04 16:54:52;;;;;;;6.60;3.50;;;27.10;99.90;;;;;;4984750;28;20281;-91
2022/08/04 16:57:29;;;;;;;4.30;3.10;;;27.10;99.90;;;;;;4984955;28;20174;-90
2022/08/04 17:00:08;;;;;;;5.77;2.87;;;27.10;99.90;;;;;;4985635;28;20237;-92
2022/08/04 17:02:44;;;;;;;6.37;2.73;;;27.10;99.90;;;;;;4997524;28;20185;-91
2022/08/04 17:05:38;;;;;;;6.17;2.50;;;27.10;99.90;;;;;;4985798;28;20174;-90
2022/08/04 17:08:31;;;;;;;;;;;;;;;;;;;;;
2022/08/04 17:11:15;;;;;;;5.00;2.67;;;26.90;99.90;;;;;;5005032;28;20707;-90
2022/08/04 17:13:56;;;;;;;3.57;2.47;;;26.80;99.90;;;;;;5011008;28;20167;-91
2022/08/04 17:16:46;;;;;;;4.57;2.70;;;26.70;99.90;;;;;;4997759;28;20196;-92
2022/08/04 17:19:51;;;;;;;4.97;2.90;;;26.70;99.90;;;;;;5018537;28;20172;-90
2022/08/04 17:22:44;;;;;;;7.33;2.70;;;26.90;99.90;;;;;;5015064;28;20230;-91
2022/08/04 17:25:29;;;;;;;5.73;2.63;;;26.60;99.90;;;;;;5230451;23;20202;-93
2022/08/04 17:28:26;;;;;;;4.63;2.37;;;26.70;99.90;;;;;;5020925;28;20170;-91
2022/08/04 17:34:54;;;;;;;5.10;2.77;;;26.40;99.90;;;;;;4997563;28;20219;-95
2022/08/04 17:42:03;;;;;;;;;;;;;;;;;;;;;
2022/08/04 17:45:42;;;;;;;;;;;;;;;;;;;;;
2022/08/04 17:49:16;;;;;;;7.37;3.00;;;25.80;99.90;;;;;;4983910;28;20206;-90
2022/08/04 17:55:47;;;;;;;6.07;3.07;;;25.40;1.00;;;;;;4938565;29;20205;-95
2022/08/04 17:58:32;;;;;;;7.57;3.27;;;25.40;1.00;;;;;;4938805;29;20176;-95
2022/08/04 18:04:57;;;;;;;6.23;2.73;;;25.10;1.00;;;;;;5041084;28;20158;-96
2022/08/04 18:08:17;;;;;;;7.10;3.07;;;25.00;1.00;;;;;;5024069;28;20177;-93
2022/08/04 18:21:17;;;;;;;6.07;3.33;;;24.90;1.00;;;;;;4981957;28;20221;-88
2022/08/04 18:23:59;;;;;;;5.70;2.93;;;24.80;1.00;;;;;;4963633;28;20167;-90
2022/08/04 18:31:52;;;;;;;;;;;;;;;;;;;;;
2022/08/04 18:34:01;;;;;;;6.33;2.70;;;24.60;1.00;;;;;;5024277;28;20189;-87
2022/08/04 18:37:12;;;;;;;5.87;2.67;;;24.60;1.00;;;;;;4982230;28;20175;-90
2022/08/04 18:40:24;;;;;;;5.40;2.50;;;24.50;1.00;;;;;;4966509;28;20211;-90
2022/08/04 18:43:40;;;;;;;5.67;2.77;;;24.30;1.00;;;;;;4982234;28;20195;-91
2022/08/04 18:47:01;;;;;;;3.80;2.30;;;24.30;1.00;;;;;;4981742;28;20219;-91
2022/08/04 18:49:47;;;;;;;5.97;3.07;;;24.30;1.00;;;;;;4903720;29;20179;-89
2022/08/04 18:53:14;;;;;;;5.47;2.80;;;24.10;1.00;;;;;;4925389;29;20185;-91
2022/08/04 18:56:53;;;;;;;4.23;2.80;;;24.10;1.00;;;;;;4942181;29;20194;-91
2022/08/04 19:00:20;;;;;;;5.17;2.37;;;24.10;1.00;;;;;;4941549;29;20166;-90
2022/08/04 19:03:08;;;;;;;5.00;2.77;;;24.00;1.00;;;;;;4960572;29;20169;-90
2022/08/04 19:06:06;;;;;;;5.20;2.60;;;23.80;1.00;;;;;;4962037;29;20211;-91
2022/08/04 19:09:23;;;;;;;5.10;2.27;;;23.60;1.00;;;;;;4961187;29;20196;-90
2022/08/04 19:16:08;;;;;;;5.40;2.53;;;23.50;1.00;;;;;;4942098;29;20207;-90
2022/08/04 19:18:52;;;;;;;6.90;2.23;;;23.40;1.00;;;;;;4905611;29;20810;-90
2022/08/04 19:22:12;;;;;;;4.93;2.60;;;23.30;1.00;;;;;;4932874;29;20285;-90
2022/08/04 19:25:05;;;;;;;7.23;2.63;;;23.20;1.00;;;;;;4946973;29;20264;-91